sensor_id;sensor_type;location;lat;lon;timestamp;pressure;altitude;pressure_sealevel;temperature;humidity
62237;BME280;69163;48.778;2.308;2023-08-06T00:00:43;100230.19;;;18.70;43.63
62237;BME280;69163;48.778;2.308;2023-08-06T00:03:08;100241.91;;;18.61;43.75
62237;BME280;69163;48.778;2.308;2023-08-06T00:05:34;100250.68;;;18.63;43.74
62237;BME280;69163;48.778;2.308;2023-08-06T00:07:58;100254.45;;;18.59;43.78
62237;BME280;69163;48.778;2.308;2023-08-06T00:10:24;100253.95;;;18.58;43.78
62237;BME280;69163;48.778;2.308;2023-08-06T00:12:49;100256.50;;;18.61;43.76
62237;BME280;69163;48.778;2.308;2023-08-06T00:15:14;100261.84;;;18.89;43.70
62237;BME280;69163;48.778;2.308;2023-08-06T00:17:39;100265.78;;;18.69;43.66
62237;BME280;69163;48.778;2.308;2023-08-06T00:20:07;100270.67;;;18.24;43.61
62237;BME280;69163;48.778;2.308;2023-08-06T00:22:30;100271.40;;;18.21;43.66
62237;BME280;69163;48.778;2.308;2023-08-06T00:24:55;100277.05;;;18.23;43.64
62237;BME280;69163;48.778;2.308;2023-08-06T00:27:20;100272.80;;;18.48;43.66
62237;BME280;69163;48.778;2.308;2023-08-06T00:29:45;100274.87;;;18.95;43.65
62237;BME280;69163;48.778;2.308;2023-08-06T00:32:10;100281.45;;;18.78;43.55
62237;BME280;69163;48.778;2.308;2023-08-06T00:34:36;100284.14;;;18.88;43.70
62237;BME280;69163;48.778;2.308;2023-08-06T00:37:01;100285.81;;;18.41;43.69
62237;BME280;69163;48.778;2.308;2023-08-06T00:39:26;100294.03;;;18.66;43.68
62237;BME280;69163;48.778;2.308;2023-08-06T00:41:51;100295.85;;;18.73;43.62
62237;BME280;69163;48.778;2.308;2023-08-06T00:44:17;100300.56;;;18.66;43.70
62237;BME280;69163;48.778;2.308;2023-08-06T00:46:42;100305.38;;;18.42;43.71
62237;BME280;69163;48.778;2.308;2023-08-06T00:49:07;100310.38;;;18.47;43.66
62237;BME280;69163;48.778;2.308;2023-08-06T00:51:32;100313.31;;;18.75;43.57
62237;BME280;69163;48.778;2.308;2023-08-06T00:53:57;100308.77;;;18.75;43.56
62237;BME280;69163;48.778;2.308;2023-08-06T00:56:23;100312.45;;;18.67;43.64
62237;BME280;69163;48.778;2.308;2023-08-06T00:58:48;100311.36;;;18.70;43.64
62237;BME280;69163;48.778;2.308;2023-08-06T01:01:13;100319.62;;;18.66;43.68
62237;BME280;69163;48.778;2.308;2023-08-06T01:03:38;100319.19;;;18.64;43.70
62237;BME280;69163;48.778;2.308;2023-08-06T01:06:04;100321.86;;;18.44;43.68
62237;BME280;69163;48.778;2.308;2023-08-06T01:08:38;100323.66;;;18.68;43.68
62237;BME280;69163;48.778;2.308;2023-08-06T01:11:04;100329.48;;;18.69;43.64
62237;BME280;69163;48.778;2.308;2023-08-06T01:13:27;100332.45;;;18.67;43.67
62237;BME280;69163;48.778;2.308;2023-08-06T01:15:48;100335.21;;;18.19;43.63
62237;BME280;69163;48.778;2.308;2023-08-06T01:18:10;100339.24;;;18.37;43.74
62237;BME280;69163;48.778;2.308;2023-08-06T01:20:34;100341.89;;;18.61;43.72
62237;BME280;69163;48.778;2.308;2023-08-06T01:22:59;100350.37;;;18.59;43.79
62237;BME280;69163;48.778;2.308;2023-08-06T01:25:32;100350.04;;;18.42;43.71
62237;BME280;69163;48.778;2.308;2023-08-06T01:27:50;100355.95;;;18.37;43.74
62237;BME280;69163;48.778;2.308;2023-08-06T01:30:19;100359.08;;;18.41;43.66
62237;BME280;69163;48.778;2.308;2023-08-06T01:32:44;100360.45;;;18.61;43.70
62237;BME280;69163;48.778;2.308;2023-08-06T01:35:06;100359.55;;;18.57;43.74
62237;BME280;69163;48.778;2.308;2023-08-06T01:37:31;100376.11;;;18.82;43.73
62237;BME280;69163;48.778;2.308;2023-08-06T01:39:56;100384.09;;;18.80;43.76
62237;BME280;69163;48.778;2.308;2023-08-06T01:42:21;100380.76;;;18.57;43.74
62237;BME280;69163;48.778;2.308;2023-08-06T01:44:46;100386.23;;;18.56;43.76
62237;BME280;69163;48.778;2.308;2023-08-06T01:47:11;100387.71;;;18.56;43.78
62237;BME280;69163;48.778;2.308;2023-08-06T01:49:37;100390.64;;;18.33;43.72
62237;BME280;69163;48.778;2.308;2023-08-06T01:52:02;100395.14;;;18.54;43.76
62237;BME280;69163;48.778;2.308;2023-08-06T01:54:27;100399.06;;;18.53;43.76
62237;BME280;69163;48.778;2.308;2023-08-06T01:56:52;100403.04;;;18.54;43.75
62237;BME280;69163;48.778;2.308;2023-08-06T01:59:17;100405.07;;;18.53;43.75
62237;BME280;69163;48.778;2.308;2023-08-06T02:01:43;100414.20;;;18.37;43.69
62237;BME280;69163;48.778;2.308;2023-08-06T02:04:07;100414.02;;;18.38;43.59
62237;BME280;69163;48.778;2.308;2023-08-06T02:06:32;100419.37;;;18.63;43.59
62237;BME280;69163;48.778;2.308;2023-08-06T02:08:58;100420.57;;;18.63;43.57
62237;BME280;69163;48.778;2.308;2023-08-06T02:11:23;100421.91;;;18.73;43.40
62237;BME280;69163;48.778;2.308;2023-08-06T02:13:49;100419.32;;;18.66;43.45
62237;BME280;69163;48.778;2.308;2023-08-06T02:16:14;100421.06;;;18.62;43.51
62237;BME280;69163;48.778;2.308;2023-08-06T02:18:39;100420.77;;;18.57;43.57
62237;BME280;69163;48.778;2.308;2023-08-06T02:21:05;100428.08;;;18.55;43.61
62237;BME280;69163;48.778;2.308;2023-08-06T02:23:29;100431.45;;;18.55;43.60
62237;BME280;69163;48.778;2.308;2023-08-06T02:25:59;100432.29;;;18.58;43.57
62237;BME280;69163;48.778;2.308;2023-08-06T02:28:20;100427.64;;;18.38;43.50
62237;BME280;69163;48.778;2.308;2023-08-06T02:30:50;100435.89;;;18.60;43.50
62237;BME280;69163;48.778;2.308;2023-08-06T02:33:09;100434.73;;;18.61;43.41
62237;BME280;69163;48.778;2.308;2023-08-06T02:35:35;100443.84;;;18.51;43.56
62237;BME280;69163;48.778;2.308;2023-08-06T02:38:00;100446.62;;;18.55;43.55
62237;BME280;69163;48.778;2.308;2023-08-06T02:40:26;100443.33;;;18.50;43.55
62237;BME280;69163;48.778;2.308;2023-08-06T02:42:51;100439.26;;;18.47;43.61
62237;BME280;69163;48.778;2.308;2023-08-06T02:45:16;100448.52;;;18.41;43.71
62237;BME280;69163;48.778;2.308;2023-08-06T02:47:41;100446.39;;;18.51;43.59
62237;BME280;69163;48.778;2.308;2023-08-06T02:50:07;100451.23;;;18.33;43.48
62237;BME280;69163;48.778;2.308;2023-08-06T02:52:32;100452.87;;;18.62;43.36
62237;BME280;69163;48.778;2.308;2023-08-06T02:54:57;100460.33;;;18.54;43.48
62237;BME280;69163;48.778;2.308;2023-08-06T02:57:22;100466.86;;;18.28;43.53
62237;BME280;69163;48.778;2.308;2023-08-06T02:59:47;100472.19;;;18.51;43.54
62237;BME280;69163;48.778;2.308;2023-08-06T03:02:12;100471.12;;;18.53;43.48
62237;BME280;69163;48.778;2.308;2023-08-06T03:04:38;100474.14;;;18.48;43.54
62237;BME280;69163;48.778;2.308;2023-08-06T03:07:03;100479.40;;;18.35;43.38
62237;BME280;69163;48.778;2.308;2023-08-06T03:09:27;100484.42;;;18.58;43.39
62237;BME280;69163;48.778;2.308;2023-08-06T03:11:53;100483.47;;;18.64;43.28
62237;BME280;69163;48.778;2.308;2023-08-06T03:14:18;100487.77;;;18.54;43.40
62237;BME280;69163;48.778;2.308;2023-08-06T03:16:43;100488.65;;;18.71;43.51
62237;BME280;69163;48.778;2.308;2023-08-06T03:19:08;100483.84;;;18.49;43.46
62237;BME280;69163;48.778;2.308;2023-08-06T03:21:34;100485.21;;;18.51;43.42
62237;BME280;69163;48.778;2.308;2023-08-06T03:23:59;100482.49;;;18.49;43.40
62237;BME280;69163;48.778;2.308;2023-08-06T03:26:24;100483.78;;;18.33;43.32
62237;BME280;69163;48.778;2.308;2023-08-06T03:28:49;100483.51;;;18.57;43.36
62237;BME280;69163;48.778;2.308;2023-08-06T03:31:14;100482.34;;;18.53;43.34
62237;BME280;69163;48.778;2.308;2023-08-06T03:33:40;100478.86;;;18.58;43.28
62237;BME280;69163;48.778;2.308;2023-08-06T03:36:06;100486.66;;;18.52;43.32
62237;BME280;69163;48.778;2.308;2023-08-06T03:38:30;100487.73;;;18.25;43.37
62237;BME280;69163;48.778;2.308;2023-08-06T03:40:55;100487.65;;;18.42;43.45
62237;BME280;69163;48.778;2.308;2023-08-06T03:43:20;100488.09;;;18.56;43.26
62237;BME280;69163;48.778;2.308;2023-08-06T03:45:45;100490.22;;;18.45;43.43
62237;BME280;69163;48.778;2.308;2023-08-06T03:48:11;100498.57;;;18.49;43.35
62237;BME280;69163;48.778;2.308;2023-08-06T03:50:36;100501.04;;;18.56;43.25
62237;BME280;69163;48.778;2.308;2023-08-06T03:53:02;100502.01;;;18.80;43.22
62237;BME280;69163;48.778;2.308;2023-08-06T03:55:27;100502.54;;;18.74;43.28
62237;BME280;69163;48.778;2.308;2023-08-06T03:57:52;100504.07;;;18.53;43.25
62237;BME280;69163;48.778;2.308;2023-08-06T04:00:17;100512.59;;;18.73;43.27
62237;BME280;69163;48.778;2.308;2023-08-06T04:02:42;100517.06;;;18.48;43.30
62237;BME280;69163;48.778;2.308;2023-08-06T04:05:08;100518.33;;;18.50;43.28
62237;BME280;69163;48.778;2.308;2023-08-06T04:07:32;100516.75;;;18.73;43.30
62237;BME280;69163;48.778;2.308;2023-08-06T04:09:59;100514.21;;;18.44;43.37
62237;BME280;69163;48.778;2.308;2023-08-06T04:12:23;100521.93;;;18.56;43.15
62237;BME280;69163;48.778;2.308;2023-08-06T04:14:49;100529.03;;;18.46;43.28
62237;BME280;69163;48.778;2.308;2023-08-06T04:17:13;100537.60;;;18.49;43.22
62237;BME280;69163;48.778;2.308;2023-08-06T04:19:38;100541.56;;;18.44;43.26
62237;BME280;69163;48.778;2.308;2023-08-06T04:22:04;100552.61;;;18.67;43.28
62237;BME280;69163;48.778;2.308;2023-08-06T04:24:29;100559.04;;;18.46;43.24
62237;BME280;69163;48.778;2.308;2023-08-06T04:26:54;100569.51;;;18.50;43.19
62237;BME280;69163;48.778;2.308;2023-08-06T04:29:19;100574.14;;;18.58;43.07
62237;BME280;69163;48.778;2.308;2023-08-06T04:31:44;100579.12;;;18.58;43.03
62237;BME280;69163;48.778;2.308;2023-08-06T04:34:10;100585.72;;;18.58;43.03
62237;BME280;69163;48.778;2.308;2023-08-06T04:36:35;100587.35;;;18.51;43.07
62237;BME280;69163;48.778;2.308;2023-08-06T04:39:00;100587.32;;;18.40;43.25
62237;BME280;69163;48.778;2.308;2023-08-06T04:41:25;100586.16;;;18.39;43.32
62237;BME280;69163;48.778;2.308;2023-08-06T04:43:50;100586.06;;;18.65;43.18
62237;BME280;69163;48.778;2.308;2023-08-06T04:46:15;100587.17;;;18.37;43.25
62237;BME280;69163;48.778;2.308;2023-08-06T04:48:40;100580.46;;;18.41;43.23
62237;BME280;69163;48.778;2.308;2023-08-06T04:51:06;100586.28;;;18.53;43.02
62237;BME280;69163;48.778;2.308;2023-08-06T04:53:31;100591.35;;;18.50;43.03
62237;BME280;69163;48.778;2.308;2023-08-06T04:55:56;100598.31;;;18.52;42.98
62237;BME280;69163;48.778;2.308;2023-08-06T04:58:22;100598.42;;;18.39;43.14
62237;BME280;69163;48.778;2.308;2023-08-06T05:00:47;100601.81;;;18.37;43.19
62237;BME280;69163;48.778;2.308;2023-08-06T05:03:12;100611.83;;;18.13;43.16
62237;BME280;69163;48.778;2.308;2023-08-06T05:05:39;100613.42;;;18.47;43.02
62237;BME280;69163;48.778;2.308;2023-08-06T05:08:03;100616.56;;;18.26;42.97
62237;BME280;69163;48.778;2.308;2023-08-06T05:10:28;100622.77;;;18.47;42.98
62237;BME280;69163;48.778;2.308;2023-08-06T05:12:52;100627.88;;;18.56;42.84
62237;BME280;69163;48.778;2.308;2023-08-06T05:15:18;100632.51;;;18.74;42.91
62237;BME280;69163;48.778;2.308;2023-08-06T05:17:43;100638.20;;;18.67;42.99
62237;BME280;69163;48.778;2.308;2023-08-06T05:20:09;100633.87;;;18.34;43.13
62237;BME280;69163;48.778;2.308;2023-08-06T05:22:33;100645.58;;;18.37;43.05
62237;BME280;69163;48.778;2.308;2023-08-06T05:24:59;100651.07;;;18.62;43.09
62237;BME280;69163;48.778;2.308;2023-08-06T05:27:24;100651.66;;;18.61;43.07
62237;BME280;69163;48.778;2.308;2023-08-06T05:29:49;100663.71;;;18.37;43.07
62237;BME280;69163;48.778;2.308;2023-08-06T05:32:14;100664.70;;;18.40;43.05
62237;BME280;69163;48.778;2.308;2023-08-06T05:34:39;100662.70;;;18.36;43.05
62237;BME280;69163;48.778;2.308;2023-08-06T05:37:06;100671.02;;;18.37;43.02
62237;BME280;69163;48.778;2.308;2023-08-06T05:39:30;100679.27;;;18.33;43.07
62237;BME280;69163;48.778;2.308;2023-08-06T05:41:55;100678.34;;;18.22;43.20
62237;BME280;69163;48.778;2.308;2023-08-06T05:44:20;100684.18;;;18.21;43.22
62237;BME280;69163;48.778;2.308;2023-08-06T05:46:45;100692.51;;;18.54;43.15
62237;BME280;69163;48.778;2.308;2023-08-06T05:49:11;100689.12;;;18.30;43.09
62237;BME280;69163;48.778;2.308;2023-08-06T05:51:36;100690.30;;;18.32;43.09
62237;BME280;69163;48.778;2.308;2023-08-06T05:54:01;100688.56;;;18.62;42.96
62237;BME280;69163;48.778;2.308;2023-08-06T05:56:26;100691.30;;;18.56;43.04
62237;BME280;69163;48.778;2.308;2023-08-06T05:58:51;100687.86;;;18.29;43.08
62237;BME280;69163;48.778;2.308;2023-08-06T06:01:17;100693.90;;;18.28;43.07
62237;BME280;69163;48.778;2.308;2023-08-06T06:03:42;100706.30;;;18.25;43.14
62237;BME280;69163;48.778;2.308;2023-08-06T06:06:07;100708.34;;;18.25;43.14
62237;BME280;69163;48.778;2.308;2023-08-06T06:08:32;100706.14;;;18.29;43.11
62237;BME280;69163;48.778;2.308;2023-08-06T06:10:58;100711.68;;;18.08;43.04
62237;BME280;69163;48.778;2.308;2023-08-06T06:13:23;100708.55;;;18.41;42.87
62237;BME280;69163;48.778;2.308;2023-08-06T06:15:48;100710.63;;;18.39;42.89
62237;BME280;69163;48.778;2.308;2023-08-06T06:18:13;100717.56;;;18.34;42.97
62237;BME280;69163;48.778;2.308;2023-08-06T06:20:38;100724.34;;;18.29;43.04
62237;BME280;69163;48.778;2.308;2023-08-06T06:23:04;100726.89;;;18.47;43.10
62237;BME280;69163;48.778;2.308;2023-08-06T06:25:29;100722.88;;;18.26;43.07
62237;BME280;69163;48.778;2.308;2023-08-06T06:27:54;100727.61;;;18.35;42.95
62237;BME280;69163;48.778;2.308;2023-08-06T06:30:19;100730.70;;;18.26;43.10
62237;BME280;69163;48.778;2.308;2023-08-06T06:32:44;100733.04;;;18.32;43.01
62237;BME280;69163;48.778;2.308;2023-08-06T06:35:09;100742.30;;;18.38;42.90
62237;BME280;69163;48.778;2.308;2023-08-06T06:37:35;100746.21;;;18.80;42.96
62237;BME280;69163;48.778;2.308;2023-08-06T06:40:00;100751.67;;;18.28;43.04
62237;BME280;69163;48.778;2.308;2023-08-06T06:42:25;100754.85;;;18.20;43.14
62237;BME280;69163;48.778;2.308;2023-08-06T06:44:50;100755.64;;;18.26;43.08
62237;BME280;69163;48.778;2.308;2023-08-06T06:47:15;100757.03;;;18.39;42.86
62237;BME280;69163;48.778;2.308;2023-08-06T06:49:41;100756.98;;;18.61;42.92
62237;BME280;69163;48.778;2.308;2023-08-06T06:52:07;100758.95;;;18.36;42.92
62237;BME280;69163;48.778;2.308;2023-08-06T06:54:31;100765.13;;;18.83;42.95
62237;BME280;69163;48.778;2.308;2023-08-06T06:56:56;100761.09;;;18.28;43.02
62237;BME280;69163;48.778;2.308;2023-08-06T06:59:21;100765.24;;;18.53;43.03
62237;BME280;69163;48.778;2.308;2023-08-06T07:01:47;100762.65;;;18.29;43.02
62237;BME280;69163;48.778;2.308;2023-08-06T07:04:12;100756.04;;;18.50;43.05
62237;BME280;69163;48.778;2.308;2023-08-06T07:06:37;100747.84;;;18.57;42.94
62237;BME280;69163;48.778;2.308;2023-08-06T07:09:02;100754.84;;;18.51;43.02
62237;BME280;69163;48.778;2.308;2023-08-06T07:11:27;100757.80;;;18.22;43.10
62237;BME280;69163;48.778;2.308;2023-08-06T07:13:57;100762.99;;;18.21;43.11
62237;BME280;69163;48.778;2.308;2023-08-06T07:16:18;100774.31;;;18.20;43.13
62237;BME280;69163;48.778;2.308;2023-08-06T07:18:43;100776.71;;;18.39;43.19
62237;BME280;69163;48.778;2.308;2023-08-06T07:21:08;100778.60;;;18.13;43.22
62237;BME280;69163;48.778;2.308;2023-08-06T07:23:33;100782.11;;;18.11;43.26
62237;BME280;69163;48.778;2.308;2023-08-06T07:25:58;100781.91;;;18.14;43.18
62237;BME280;69163;48.778;2.308;2023-08-06T07:28:24;100780.72;;;18.11;43.24
62237;BME280;69163;48.778;2.308;2023-08-06T07:30:49;100785.93;;;18.34;43.23
62237;BME280;69163;48.778;2.308;2023-08-06T07:33:14;100784.61;;;18.11;43.20
62237;BME280;69163;48.778;2.308;2023-08-06T07:35:39;100780.32;;;18.10;43.19
62237;BME280;69163;48.778;2.308;2023-08-06T07:38:05;100788.67;;;18.12;43.15
62237;BME280;69163;48.778;2.308;2023-08-06T07:40:29;100790.22;;;18.12;43.09
62237;BME280;69163;48.778;2.308;2023-08-06T07:42:54;100790.76;;;18.12;43.11
62237;BME280;69163;48.778;2.308;2023-08-06T07:45:20;100791.55;;;18.58;43.13
62237;BME280;69163;48.778;2.308;2023-08-06T07:47:45;100793.54;;;18.31;43.17
62237;BME280;69163;48.778;2.308;2023-08-06T07:50:10;100802.83;;;18.06;43.19
62237;BME280;69163;48.778;2.308;2023-08-06T07:52:36;100799.95;;;18.57;43.06
62237;BME280;69163;48.778;2.308;2023-08-06T07:55:01;100806.33;;;18.09;43.10
62237;BME280;69163;48.778;2.308;2023-08-06T07:57:31;100814.33;;;18.10;43.06
62237;BME280;69163;48.778;2.308;2023-08-06T07:59:51;100806.90;;;18.05;43.08
62237;BME280;69163;48.778;2.308;2023-08-06T08:02:16;100812.58;;;18.08;43.06
62237;BME280;69163;48.778;2.308;2023-08-06T08:04:42;100822.43;;;18.14;42.95
62237;BME280;69163;48.778;2.308;2023-08-06T08:07:09;100829.95;;;18.13;43.00
62237;BME280;69163;48.778;2.308;2023-08-06T08:09:32;100830.76;;;18.17;42.88
62237;BME280;69163;48.778;2.308;2023-08-06T08:11:57;100834.11;;;18.22;42.77
62237;BME280;69163;48.778;2.308;2023-08-06T08:14:22;100839.26;;;18.23;42.73
62237;BME280;69163;48.778;2.308;2023-08-06T08:16:48;100838.41;;;18.36;42.81
62237;BME280;69163;48.778;2.308;2023-08-06T08:19:13;100840.97;;;18.08;42.92
62237;BME280;69163;48.778;2.308;2023-08-06T08:21:38;100835.91;;;18.14;42.75
62237;BME280;69163;48.778;2.308;2023-08-06T08:24:04;100848.86;;;18.11;42.83
62237;BME280;69163;48.778;2.308;2023-08-06T08:26:28;100847.28;;;18.23;42.64
62237;BME280;69163;48.778;2.308;2023-08-06T08:28:53;100851.17;;;18.17;42.72
62237;BME280;69163;48.778;2.308;2023-08-06T08:31:19;100853.07;;;18.41;42.70
62237;BME280;69163;48.778;2.308;2023-08-06T08:33:44;100864.24;;;18.17;42.66
62237;BME280;69163;48.778;2.308;2023-08-06T08:36:09;100868.82;;;18.15;42.75
62237;BME280;69163;48.778;2.308;2023-08-06T08:38:34;100875.38;;;18.12;42.77
62237;BME280;69163;48.778;2.308;2023-08-06T08:40:59;100876.18;;;18.11;42.75
62237;BME280;69163;48.778;2.308;2023-08-06T08:43:24;100877.74;;;18.38;42.66
62237;BME280;69163;48.778;2.308;2023-08-06T08:45:51;100882.18;;;18.18;42.63
62237;BME280;69163;48.778;2.308;2023-08-06T08:48:15;100871.88;;;18.40;42.60
62237;BME280;69163;48.778;2.308;2023-08-06T08:50:40;100879.56;;;18.34;42.72
62237;BME280;69163;48.778;2.308;2023-08-06T08:53:06;100878.17;;;18.35;42.64
62237;BME280;69163;48.778;2.308;2023-08-06T08:55:31;100885.87;;;18.29;42.68
62237;BME280;69163;48.778;2.308;2023-08-06T08:57:56;100892.04;;;18.04;42.72
62237;BME280;69163;48.778;2.308;2023-08-06T09:00:21;100892.74;;;18.25;42.71
62237;BME280;69163;48.778;2.308;2023-08-06T09:02:46;100893.22;;;18.02;42.63
62237;BME280;69163;48.778;2.308;2023-08-06T09:05:12;100897.66;;;18.11;42.52
62237;BME280;69163;48.778;2.308;2023-08-06T09:07:41;100899.15;;;18.35;42.50
62237;BME280;69163;48.778;2.308;2023-08-06T09:10:03;100898.50;;;18.31;42.52
62237;BME280;69163;48.778;2.308;2023-08-06T09:12:27;100898.32;;;18.04;42.58
62237;BME280;69163;48.778;2.308;2023-08-06T09:14:52;100904.26;;;18.05;42.54
62237;BME280;69163;48.778;2.308;2023-08-06T09:17:18;100901.92;;;18.25;42.59
62237;BME280;69163;48.778;2.308;2023-08-06T09:19:43;100901.37;;;18.05;42.51
62237;BME280;69163;48.778;2.308;2023-08-06T09:22:09;100905.81;;;18.28;42.54
62237;BME280;69163;48.778;2.308;2023-08-06T09:24:33;100907.85;;;18.33;42.47
62237;BME280;69163;48.778;2.308;2023-08-06T09:27:03;100902.66;;;18.34;42.44
62237;BME280;69163;48.778;2.308;2023-08-06T09:29:23;100906.42;;;18.34;42.43
62237;BME280;69163;48.778;2.308;2023-08-06T09:31:50;100913.71;;;18.05;42.48
62237;BME280;69163;48.778;2.308;2023-08-06T09:34:16;100910.17;;;18.30;42.50
62237;BME280;69163;48.778;2.308;2023-08-06T09:36:41;100910.72;;;18.11;42.41
62237;BME280;69163;48.778;2.308;2023-08-06T09:39:13;100912.59;;;18.13;42.33
62237;BME280;69163;48.778;2.308;2023-08-06T09:41:29;100916.27;;;18.34;42.38
62237;BME280;69163;48.778;2.308;2023-08-06T09:43:54;100911.41;;;18.12;42.31
62237;BME280;69163;48.778;2.308;2023-08-06T09:46:19;100917.90;;;18.42;42.19
62237;BME280;69163;48.778;2.308;2023-08-06T09:48:46;100916.55;;;18.38;42.26
62237;BME280;69163;48.778;2.308;2023-08-06T09:51:11;100912.07;;;18.08;42.35
62237;BME280;69163;48.778;2.308;2023-08-06T09:53:36;100919.25;;;18.08;42.32
62237;BME280;69163;48.778;2.308;2023-08-06T09:56:01;100915.11;;;18.32;42.31
62237;BME280;69163;48.778;2.308;2023-08-06T09:58:25;100911.06;;;18.08;42.30
62237;BME280;69163;48.778;2.308;2023-08-06T10:00:51;100913.91;;;18.10;42.26
62237;BME280;69163;48.778;2.308;2023-08-06T10:03:16;100917.98;;;18.09;42.27
62237;BME280;69163;48.778;2.308;2023-08-06T10:05:41;100919.84;;;18.33;42.20
62237;BME280;69163;48.778;2.308;2023-08-06T10:08:07;100922.71;;;18.21;42.02
62237;BME280;69163;48.778;2.308;2023-08-06T10:10:32;100929.62;;;18.23;42.00
62237;BME280;69163;48.778;2.308;2023-08-06T10:12:59;100935.57;;;18.28;41.95
62237;BME280;69163;48.778;2.308;2023-08-06T10:15:23;100935.00;;;18.16;41.98
62237;BME280;69163;48.778;2.308;2023-08-06T10:17:48;100937.18;;;17.95;41.95
62237;BME280;69163;48.778;2.308;2023-08-06T10:20:12;100934.08;;;18.17;41.99
62237;BME280;69163;48.778;2.308;2023-08-06T10:22:42;100943.00;;;18.19;41.90
62237;BME280;69163;48.778;2.308;2023-08-06T10:25:04;100937.95;;;18.16;41.93
62237;BME280;69163;48.778;2.308;2023-08-06T10:27:30;100938.64;;;18.37;41.93
62237;BME280;69163;48.778;2.308;2023-08-06T10:29:53;100938.16;;;18.40;41.87
62237;BME280;69163;48.778;2.308;2023-08-06T10:32:18;100940.09;;;18.63;41.88
62237;BME280;69163;48.778;2.308;2023-08-06T10:34:54;100939.88;;;18.35;41.86
62237;BME280;69163;48.778;2.308;2023-08-06T10:37:10;100940.69;;;18.41;41.75
62237;BME280;69163;48.778;2.308;2023-08-06T10:39:34;100949.78;;;18.32;41.84
62237;BME280;69163;48.778;2.308;2023-08-06T10:42:02;100947.33;;;18.33;41.89
62237;BME280;69163;48.778;2.308;2023-08-06T10:44:24;100953.47;;;18.35;41.89
62237;BME280;69163;48.778;2.308;2023-08-06T10:46:50;100954.76;;;18.38;41.77
62237;BME280;69163;48.778;2.308;2023-08-06T10:49:18;100962.00;;;18.15;41.76
62237;BME280;69163;48.778;2.308;2023-08-06T10:51:40;100959.21;;;18.36;41.81
62237;BME280;69163;48.778;2.308;2023-08-06T10:54:06;100960.67;;;18.32;41.84
62237;BME280;69163;48.778;2.308;2023-08-06T10:56:31;100956.27;;;18.38;41.79
62237;BME280;69163;48.778;2.308;2023-08-06T10:58:56;100960.91;;;18.10;41.85
62237;BME280;69163;48.778;2.308;2023-08-06T11:01:22;100962.47;;;18.10;41.79
62237;BME280;69163;48.778;2.308;2023-08-06T11:03:47;100966.66;;;18.10;41.80
62237;BME280;69163;48.778;2.308;2023-08-06T11:06:17;100963.80;;;18.09;41.83
62237;BME280;69163;48.778;2.308;2023-08-06T11:08:40;100963.13;;;18.05;41.87
62237;BME280;69163;48.778;2.308;2023-08-06T11:11:08;100965.05;;;18.07;41.87
62237;BME280;69163;48.778;2.308;2023-08-06T11:13:27;100962.92;;;18.34;41.77
62237;BME280;69163;48.778;2.308;2023-08-06T11:15:52;100960.82;;;18.10;41.76
62237;BME280;69163;48.778;2.308;2023-08-06T11:18:17;100962.84;;;18.10;41.79
62237;BME280;69163;48.778;2.308;2023-08-06T11:20:43;100958.85;;;18.59;41.76
62237;BME280;69163;48.778;2.308;2023-08-06T11:23:10;100965.44;;;18.12;41.76
62237;BME280;69163;48.778;2.308;2023-08-06T11:25:36;100962.96;;;18.27;41.91
62237;BME280;69163;48.778;2.308;2023-08-06T11:28:00;100957.48;;;18.24;41.88
62237;BME280;69163;48.778;2.308;2023-08-06T11:30:24;100955.31;;;18.32;41.78
62237;BME280;69163;48.778;2.308;2023-08-06T11:32:49;100956.42;;;18.09;41.75
62237;BME280;69163;48.778;2.308;2023-08-06T11:35:15;100962.20;;;18.38;41.60
62237;BME280;69163;48.778;2.308;2023-08-06T11:37:43;100963.45;;;18.17;41.63
62237;BME280;69163;48.778;2.308;2023-08-06T11:40:09;100964.54;;;18.09;41.70
62237;BME280;69163;48.778;2.308;2023-08-06T11:42:31;100956.83;;;18.17;41.62
62237;BME280;69163;48.778;2.308;2023-08-06T11:44:57;100966.41;;;18.12;41.64
62237;BME280;69163;48.778;2.308;2023-08-06T11:47:20;100964.43;;;18.08;41.73
62237;BME280;69163;48.778;2.308;2023-08-06T11:49:46;100962.78;;;18.07;41.74
62237;BME280;69163;48.778;2.308;2023-08-06T11:52:13;100969.56;;;18.09;41.71
62237;BME280;69163;48.778;2.308;2023-08-06T11:54:36;100968.17;;;18.34;41.72
62237;BME280;69163;48.778;2.308;2023-08-06T11:57:01;100969.02;;;18.32;41.73
62237;BME280;69163;48.778;2.308;2023-08-06T11:59:26;100966.20;;;18.57;41.70
62237;BME280;69163;48.778;2.308;2023-08-06T12:01:52;100972.70;;;18.50;41.83
62237;BME280;69163;48.778;2.308;2023-08-06T12:04:17;100979.94;;;18.64;41.64
62237;BME280;69163;48.778;2.308;2023-08-06T12:06:43;100974.63;;;18.40;41.62
62237;BME280;69163;48.778;2.308;2023-08-06T12:09:07;100975.06;;;17.96;41.53
62237;BME280;69163;48.778;2.308;2023-08-06T12:11:32;100987.80;;;18.44;41.57
62237;BME280;69163;48.778;2.308;2023-08-06T12:13:58;100984.93;;;18.19;41.57
62237;BME280;69163;48.778;2.308;2023-08-06T12:16:23;100988.35;;;18.16;41.57
62237;BME280;69163;48.778;2.308;2023-08-06T12:18:48;100987.92;;;18.15;41.61
62237;BME280;69163;48.778;2.308;2023-08-06T12:21:13;100988.69;;;18.15;41.63
62237;BME280;69163;48.778;2.308;2023-08-06T12:23:39;100985.41;;;18.47;41.48
62237;BME280;69163;48.778;2.308;2023-08-06T12:26:04;100985.74;;;18.15;41.59
62237;BME280;69163;48.778;2.308;2023-08-06T12:28:28;100982.14;;;18.10;41.64
62237;BME280;69163;48.778;2.308;2023-08-06T12:30:54;100982.21;;;18.42;41.56
62237;BME280;69163;48.778;2.308;2023-08-06T12:33:19;100980.60;;;18.18;41.54
62237;BME280;69163;48.778;2.308;2023-08-06T12:35:45;100986.01;;;18.66;41.54
62237;BME280;69163;48.778;2.308;2023-08-06T12:38:10;100977.58;;;18.12;41.65